Latest Weather Observations for Burnie Port

IDT60801

Issued at 4:02 pm EST Tuesday 26 July 2016 (issued every 30 minutes, with the page automatically refreshed every 10 minutes)

About weather observations | Map of weather stations | Latest weather observations for TAS | Other Formats
Station Details ID: 091344 Name: BURNIE NTC AWS Lat: -41.05 Lon: 145.91 Height: 0.0 m
Data from the previous 72 hours. | See also: Recent months for locations in Tasmania
Date/Time
EST
Temp
°C
App
Temp
°C
Dew
Point
°C
Rel
Hum
%
Delta-T
°C
Wind Press
QNH
hPa
Press
MSL
hPa
Rain since
9am
mm
Dir  Spd
km/h
Gust
km/h
Spd
kts
Gust
kts
26/04:00pm - - - - - WSW 11 24 6 13 1002.4 1002.4 -
26/03:30pm - - - - - W 17 32 9 17 1002.7 1002.7 -
26/03:00pm - - - - - WNW 17 28 9 15 1003.1 1003.1 -
26/02:30pm - - - - - WNW 19 32 10 17 1003.3 1003.3 -
26/02:00pm - - - - - WNW 24 43 13 23 1003.6 1003.6 -
26/01:30pm - - - - - WNW 26 43 14 23 1003.5 1003.5 -
26/01:00pm - - - - - WNW 15 24 8 13 1003.4 1003.4 -
26/12:30pm - - - - - WNW 22 39 12 21 1003.9 1003.9 -
26/12:10pm - - - - - WNW 26 48 14 26 1004.1 1004.1 -
26/12:00pm - - - - - WNW 24 33 13 18 1003.8 1003.8 -
26/11:30am - - - - - NW 32 41 17 22 1003.8 1003.8 -
26/11:00am - - - - - WNW 15 24 8 13 1004.1 1004.1 -
26/10:30am - - - - - WNW 17 26 9 14 1003.8 1003.8 -
26/10:00am - - - - - WNW 20 33 11 18 1003.5 1003.5 -
26/09:30am - - - - - WSW 13 26 7 14 1003.2 1003.2 -
26/09:00am - - - - - W 17 28 9 15 1003.4 1003.4 -
26/08:30am - - - - - WNW 11 20 6 11 1003.0 1003.0 -
26/08:00am - - - - - WNW 11 22 6 12 1002.5 1002.5 -
26/07:30am - - - - - W 13 19 7 10 1002.2 1002.2 -
26/07:00am - - - - - WNW 13 20 7 11 1001.6 1001.6 -
26/06:30am - - - - - WNW 15 26 8 14 1001.0 1001.0 -
26/06:00am - - - - - W 19 32 10 17 1000.5 1000.5 -
26/05:30am - - - - - WNW 17 26 9 14 999.6 999.6 -
26/05:00am - - - - - W 24 46 13 25 999.3 999.3 -
26/04:30am - - - - - WNW 15 24 8 13 998.5 998.5 -
26/04:00am - - - - - W 19 46 10 25 998.2 998.2 -
26/03:30am - - - - - W 17 28 9 15 997.9 997.9 -
26/03:00am - - - - - W 17 26 9 14 997.3 997.3 -
26/02:30am - - - - - WNW 11 20 6 11 997.2 997.2 -
26/02:00am - - - - - W 13 19 7 10 997.2 997.2 -
26/01:30am - - - - - W 24 43 13 23 996.8 996.8 -
26/01:00am - - - - - W 24 46 13 25 996.5 996.5 -
26/12:30am - - - - - W 15 28 8 15 996.0 996.0 -
26/12:00am - - - - - W 15 24 8 13 996.2 996.2 -
 
Date/Time
EST
Temp
°C
App
Temp
°C
Dew
Point
°C
Rel
Hum
%
Delta-T
°C
Wind Press
QNH
hPa
Press
MSL
hPa
Rain since
9am
mm
Dir  Spd
km/h
Gust
km/h
Spd
kts
Gust
kts
25/11:30pm - - - - - W 22 41 12 22 995.8 995.8 -
25/11:00pm - - - - - WNW 17 28 9 15 995.7 995.7 -
25/10:30pm - - - - - WNW 19 33 10 18 994.9 994.9 -
25/10:05pm - - - - - W 28 59 15 32 995.4 995.4 -
25/10:00pm - - - - - W 24 39 13 21 995.5 995.5 -
25/09:30pm - - - - - W 32 54 17 29 994.5 994.5 -
25/09:01pm - - - - - WNW 28 50 15 27 993.3 993.3 -
25/09:00pm - - - - - WNW 26 50 14 27 993.2 993.2 -
25/08:30pm - - - - - WNW 20 33 11 18 993.8 993.8 -
25/08:00pm - - - - - W 33 61 18 33 993.0 993.0 -
25/07:31pm - - - - - W 28 46 15 25 992.0 992.0 -
25/07:30pm - - - - - WNW 26 46 14 25 992.0 992.0 -
25/07:05pm - - - - - WNW 32 50 17 27 992.3 992.3 -
25/07:00pm - - - - - WNW 33 56 18 30 992.1 992.1 -
25/06:53pm - - - - - WNW 39 59 21 32 991.9 991.9 -
25/06:33pm - - - - - NW 56 93 30 50 991.8 991.8 -
25/06:30pm - - - - - NW 56 69 30 37 991.8 991.8 -
25/06:00pm - - - - - NW 70 95 38 51 992.7 992.7 -
25/05:54pm - - - - - NNW 63 93 34 50 992.9 992.9 -
25/05:52pm - - - - - NNW 61 85 33 46 992.9 992.9 -
25/05:38pm - - - - - NNW 43 67 23 36 992.7 992.7 -
25/05:30pm - - - - - NNW 46 59 25 32 992.9 992.9 -
25/05:04pm - - - - - NNW 54 74 29 40 993.3 993.3 -
25/05:00pm - - - - - NNW 54 69 29 37 993.6 993.6 -
25/04:37pm - - - - - NNW 46 72 25 39 994.2 994.2 -
25/04:30pm - - - - - NNW 44 54 24 29 994.4 994.4 -
25/04:00pm - - - - - NW 37 46 20 25 995.5 995.5 -
25/03:42pm - - - - - NW 33 56 18 30 996.3 996.3 -
25/03:30pm - - - - - NW 32 41 17 22 996.2 996.2 -
25/03:00pm - - - - - NW 26 33 14 18 996.9 996.9 -
25/02:30pm - - - - - NW 28 33 15 18 997.3 997.3 -
25/02:00pm - - - - - WNW 19 32 10 17 997.7 997.7 -
25/01:30pm - - - - - WNW 19 32 10 17 998.2 998.2 -
25/01:00pm - - - - - W 20 33 11 18 998.7 998.7 -
25/12:30pm - - - - - WNW 24 37 13 20 999.3 999.3 -
25/12:00pm - - - - - NW 24 32 13 17 999.6 999.6 -
25/11:30am - - - - - NW 17 24 9 13 1000.1 1000.1 -
25/11:00am - - - - - NW 15 19 8 10 1000.5 1000.5 -
25/10:30am - - - - - NW 13 17 7 9 1000.7 1000.7 -
25/10:00am - - - - - NW 11 13 6 7 1000.7 1000.7 -
25/09:30am - - - - - NW 11 15 6 8 1000.8 1000.8 -
25/09:00am - - - - - SSE 6 9 3 5 1000.4 1000.4 -
25/08:30am - - - - - SSW 7 9 4 5 1000.1 1000.1 -
25/08:00am - - - - - W 6 7 3 4 1000.1 1000.1 -
25/07:30am - - - - - SSW 7 13 4 7 999.8 999.8 -
25/07:00am - - - - - SSW 11 15 6 8 999.5 999.5 -
25/06:30am - - - - - S 17 20 9 11 999.3 999.3 -
25/06:00am - - - - - SSW 11 15 6 8 999.3 999.3 -
25/05:30am - - - - - S 11 15 6 8 999.6 999.6 -
25/05:00am - - - - - S 13 17 7 9 999.5 999.5 -
25/04:30am - - - - - SSW 6 7 3 4 999.7 999.7 -
25/04:00am - - - - - SSW 9 13 5 7 999.6 999.6 -
25/03:30am - - - - - SSW 9 17 5 9 999.7 999.7 -
25/03:00am - - - - - SSW 7 9 4 5 999.8 999.8 -
25/02:30am - - - - - SSW 9 11 5 6 1000.2 1000.2 -
25/02:00am - - - - - SSW 9 13 5 7 1000.2 1000.2 -
25/01:30am - - - - - S 11 15 6 8 1000.2 1000.2 -
25/01:00am - - - - - S 15 19 8 10 1000.6 1000.6 -
25/12:30am - - - - - SSW 15 19 8 10 1000.8 1000.8 -
25/12:00am - - - - - S 13 19 7 10 1001.3 1001.3 -
 
Date/Time
EST
Temp
°C
App
Temp
°C
Dew
Point
°C
Rel
Hum
%
Delta-T
°C
Wind Press
QNH
hPa
Press
MSL
hPa
Rain since
9am
mm
Dir  Spd
km/h
Gust
km/h
Spd
kts
Gust
kts
24/11:30pm - - - - - SSE 9 17 5 9 1001.4 1001.4 -
24/11:00pm - - - - - S 9 13 5 7 1001.5 1001.5 -
24/10:30pm - - - - - SSW 7 9 4 5 1001.5 1001.5 -
24/10:00pm - - - - - SSW 9 11 5 6 1001.6 1001.6 -
24/09:30pm - - - - - S 7 11 4 6 1002.0 1002.0 -
24/09:00pm - - - - - S 9 13 5 7 1002.6 1002.6 -
24/08:30pm - - - - - S 15 17 8 9 1002.2 1002.2 -
24/08:00pm - - - - - SSW 6 7 3 4 1002.6 1002.6 -
24/07:30pm - - - - - S 6 7 3 4 1002.7 1002.7 -
24/07:00pm - - - - - S 7 9 4 5 1002.9 1002.9 -
24/06:30pm - - - - - SSW 6 7 3 4 1003.1 1003.1 -
24/06:00pm - - - - - S 9 11 5 6 1003.1 1003.1 -
24/05:30pm - - - - - SSW 9 11 5 6 1003.1 1003.1 -
24/05:00pm - - - - - SE 4 6 2 3 1003.1 1003.1 -
24/04:30pm - - - - - ESE 11 15 6 8 1003.2 1003.2 -
24/04:00pm - - - - - ESE 7 9 4 5 1003.5 1003.5 -
24/03:30pm - - - - - ENE 7 13 4 7 1003.7 1003.7 -
24/03:00pm - - - - - ESE 6 15 3 8 1003.7 1003.7 -
24/02:30pm - - - - - SSE 4 6 2 3 1003.9 1003.9 -
24/02:00pm - - - - - S 6 7 3 4 1004.1 1004.1 -
24/01:30pm - - - - - SE 4 6 2 3 1004.6 1004.6 -
24/01:00pm - - - - - ESE 7 9 4 5 1004.7 1004.7 -
24/12:30pm - - - - - E 7 11 4 6 1005.0 1005.0 -
24/12:00pm - - - - - ENE 6 7 3 4 1005.5 1005.5 -
24/11:30am - - - - - NE 4 7 2 4 1006.0 1006.0 -
24/11:00am - - - - - ESE 4 6 2 3 1006.5 1006.5 -
24/10:30am - - - - - E 2 2 1 1 1006.6 1006.6 -
24/10:00am - - - - - E 2 4 1 2 1006.7 1006.7 -
24/09:30am - - - - - E 4 6 2 3 1006.8 1006.8 -
24/09:00am - - - - - S 7 11 4 6 1006.8 1006.8 -
24/08:30am - - - - - S 7 9 4 5 1006.8 1006.8 -
24/08:00am - - - - - S 7 9 4 5 1006.9 1006.9 -
24/07:30am - - - - - SSW 7 11 4 6 1006.9 1006.9 -
24/07:00am - - - - - SW 2 6 1 3 1006.9 1006.9 -
24/06:30am - - - - - WNW 6 9 3 5 1006.8 1006.8 -
24/06:00am - - - - - WSW 6 11 3 6 1006.9 1006.9 -
24/05:30am - - - - - WSW 2 6 1 3 1006.7 1006.7 -
24/05:00am - - - - - SW 4 7 2 4 1006.6 1006.6 -
24/04:30am - - - - - SW 4 7 2 4 1007.0 1007.0 -
24/04:00am - - - - - WNW 2 4 1 2 1006.8 1006.8 -
24/03:30am - - - - - SW 6 11 3 6 1007.0 1007.0 -
24/03:00am - - - - - WNW 7 9 4 5 1007.2 1007.2 -
24/02:30am - - - - - WNW 7 11 4 6 1007.4 1007.4 -

Other Formats:

Comma delimited format used in spreadsheet applications
http://www.bom.gov.au/fwo/IDT60801/IDT60801.95963.axf

JavaScript Object Notation format (JSON) in row-major order
http://www.bom.gov.au/fwo/IDT60801/IDT60801.95963.json